createdAt,value
2018-06-21T00:00:53.994Z,96983.53
2018-06-21T00:03:21.114Z,96988.12
2018-06-21T00:05:48.288Z,96986.38
2018-06-21T00:08:15.437Z,96982.14
2018-06-21T00:10:42.521Z,96983.42
2018-06-21T00:13:09.744Z,96982.12
2018-06-21T00:15:36.837Z,96976.36
2018-06-21T00:18:04.169Z,96975.52
2018-06-21T00:20:31.320Z,96977.38
2018-06-21T00:22:58.460Z,96968.40
2018-06-21T00:25:25.557Z,96970.55
2018-06-21T00:27:52.709Z,96972.71
2018-06-21T00:30:19.819Z,96972.98
2018-06-21T00:32:46.981Z,96969.52
2018-06-21T00:35:14.128Z,96964.55
2018-06-21T00:37:41.364Z,96967.41
2018-06-21T00:40:08.460Z,96957.78
2018-06-21T00:42:35.620Z,96957.12
2018-06-21T00:45:03.172Z,96955.81
2018-06-21T00:47:30.289Z,96951.83
2018-06-21T00:49:57.430Z,96949.16
2018-06-21T00:52:24.600Z,96947.17
2018-06-21T00:54:51.787Z,96942.48
2018-06-21T00:57:18.908Z,96937.13
2018-06-21T00:59:46.068Z,96942.58
2018-06-21T01:02:13.234Z,96945.37
2018-06-21T01:04:40.376Z,96945.07
2018-06-21T01:07:07.521Z,96944.95
2018-06-21T01:09:34.700Z,96949.09
2018-06-21T01:12:01.848Z,96943.78
2018-06-21T01:14:28.991Z,96941.58
2018-06-21T01:16:56.177Z,96936.27
2018-06-21T01:19:23.374Z,96940.23
2018-06-21T01:21:50.541Z,96940.64
2018-06-21T01:24:17.735Z,96937.84
2018-06-21T01:26:44.885Z,96931.19
2018-06-21T01:29:12.096Z,96928.38
2018-06-21T01:31:39.242Z,96927.34
2018-06-21T01:34:13.231Z,96926.91
2018-06-21T01:36:40.381Z,96928.41
2018-06-21T01:39:08.388Z,96923.37
2018-06-21T01:41:35.561Z,96919.28
2018-06-21T01:44:02.735Z,96915.72
2018-06-21T01:46:29.907Z,96915.73
2018-06-21T01:48:57.043Z,96918.88
2018-06-21T01:51:24.122Z,96915.92
2018-06-21T01:53:51.345Z,96910.46
2018-06-21T01:56:18.545Z,96911.55
2018-06-21T01:58:45.930Z,96911.73
2018-06-21T02:01:13.136Z,96905.48
2018-06-21T02:03:40.248Z,96902.25
2018-06-21T02:06:07.453Z,96901.88
2018-06-21T02:08:34.573Z,96898.41
2018-06-21T02:11:01.723Z,96899.33
2018-06-21T02:13:28.837Z,96899.08
2018-06-21T02:15:55.991Z,96891.44
2018-06-21T02:18:23.160Z,96892.19
2018-06-21T02:20:50.304Z,96885.91
2018-06-21T02:23:17.841Z,96886.17
2018-06-21T02:25:44.973Z,96880.05
2018-06-21T02:28:12.116Z,96854.47
2018-06-21T02:30:39.272Z,96880.48
2018-06-21T02:33:06.433Z,96878.97
2018-06-21T02:35:33.572Z,96872.19
2018-06-21T02:38:00.697Z,96871.89
2018-06-21T02:40:27.813Z,96870.80
2018-06-21T02:42:54.980Z,96867.42
2018-06-21T02:45:22.139Z,96869.58
2018-06-21T02:47:49.278Z,96864.22
2018-06-21T02:50:16.469Z,96865.81
2018-06-21T02:52:43.680Z,96859.03
2018-06-21T02:55:10.809Z,96867.27
2018-06-21T02:57:38.018Z,96858.88
2018-06-21T03:00:05.351Z,96853.28
2018-06-21T03:02:32.493Z,96849.83
2018-06-21T03:04:59.608Z,96851.05
2018-06-21T03:07:26.753Z,96857.36
2018-06-21T03:09:53.911Z,96851.66
2018-06-21T03:12:21.081Z,96856.57
2018-06-21T03:14:48.284Z,96855.64
2018-06-21T03:17:15.413Z,96859.67
2018-06-21T03:19:42.603Z,96851.95
2018-06-21T03:22:10.152Z,96853.55
2018-06-21T03:24:37.105Z,96847.45
2018-06-21T03:27:04.284Z,96854.68
2018-06-21T03:29:31.400Z,96839.36
2018-06-21T03:31:58.518Z,96853.50
2018-06-21T03:34:25.847Z,96850.14
2018-06-21T03:36:52.988Z,96845.97
2018-06-21T03:39:20.108Z,96846.50
2018-06-21T03:41:47.217Z,96845.75
2018-06-21T03:44:14.392Z,96840.84
2018-06-21T03:46:41.660Z,96834.74
2018-06-21T03:49:08.791Z,96837.77
2018-06-21T03:51:35.891Z,96831.70
2018-06-21T03:54:03.062Z,96831.45
2018-06-21T03:56:30.254Z,96830.47
2018-06-21T03:58:57.411Z,96836.31
2018-06-21T04:01:24.580Z,96835.88
2018-06-21T04:03:51.680Z,96834.23
2018-06-21T04:06:18.829Z,96830.22
2018-06-21T04:08:45.959Z,96831.84
2018-06-21T04:11:13.157Z,96835.25
2018-06-21T04:13:41.692Z,96836.43
2018-06-21T04:16:08.841Z,96831.19
2018-06-21T04:18:36.949Z,96832.00
2018-06-21T04:21:04.976Z,96833.47
2018-06-21T04:23:32.360Z,96829.45
2018-06-21T04:25:59.920Z,96825.52
2018-06-21T04:28:27.093Z,96830.52
2018-06-21T04:30:54.257Z,96828.83
2018-06-21T04:33:21.428Z,96829.20
2018-06-21T04:35:49.060Z,96828.52
2018-06-21T04:38:16.211Z,96830.12
2018-06-21T04:40:43.405Z,96825.54
2018-06-21T04:43:10.531Z,96832.44
2018-06-21T04:45:37.804Z,96822.34
2018-06-21T04:48:04.925Z,96816.34
2018-06-21T04:50:32.038Z,96821.53
2018-06-21T04:52:59.193Z,96815.63
2018-06-21T04:55:26.345Z,96813.09
2018-06-21T04:57:53.527Z,96813.07
2018-06-21T05:00:20.656Z,96807.67
2018-06-21T05:02:47.856Z,96804.38
2018-06-21T05:05:15.048Z,96807.45
2018-06-21T05:07:42.133Z,96790.67
2018-06-21T05:10:09.268Z,96799.58
2018-06-21T05:12:36.397Z,96803.11
2018-06-21T05:15:03.770Z,96797.63
2018-06-21T05:17:30.890Z,96796.44
2018-06-21T05:19:58.043Z,96793.58
2018-06-21T05:22:25.211Z,96792.47
2018-06-21T05:24:52.423Z,96791.06
2018-06-21T05:27:19.542Z,96785.51
2018-06-21T05:29:46.730Z,96788.84
2018-06-21T05:32:13.857Z,96784.03
2018-06-21T05:34:40.984Z,96785.63
2018-06-21T05:37:08.094Z,96786.77
2018-06-21T05:39:35.197Z,96783.17
2018-06-21T05:42:02.293Z,96782.47
2018-06-21T05:44:29.447Z,96782.52
2018-06-21T05:46:56.611Z,96786.77
2018-06-21T05:49:23.736Z,96775.07
2018-06-21T05:51:50.853Z,96772.01
2018-06-21T05:54:17.957Z,96776.22
2018-06-21T05:56:45.153Z,96772.94
2018-06-21T05:59:12.268Z,96771.16
2018-06-21T06:01:39.421Z,96765.11
2018-06-21T06:04:06.697Z,96767.59
2018-06-21T06:06:33.879Z,96761.87
2018-06-21T06:09:01.068Z,96761.33
2018-06-21T06:11:30.636Z,96755.47
2018-06-21T06:13:57.761Z,96752.55
2018-06-21T06:16:24.868Z,96753.06
2018-06-21T06:18:51.961Z,96746.64
2018-06-21T06:21:19.155Z,96737.75
2018-06-21T06:23:46.352Z,96733.70
2018-06-21T06:26:13.529Z,96737.84
2018-06-21T06:28:40.687Z,96739.50
2018-06-21T06:31:07.828Z,96729.52
2018-06-21T06:33:34.973Z,96727.48
2018-06-21T06:36:02.128Z,96727.36
2018-06-21T06:38:29.280Z,96717.95
2018-06-21T06:40:56.453Z,96712.70
2018-06-21T06:43:23.645Z,96715.02
2018-06-21T06:45:50.833Z,96713.77
2018-06-21T06:48:18.017Z,96718.00
2018-06-21T06:50:45.205Z,96718.17
2018-06-21T06:53:12.376Z,96720.65
2018-06-21T06:55:39.528Z,96725.05
2018-06-21T06:58:07.138Z,96708.28
2018-06-21T07:00:34.306Z,96708.33
2018-06-21T07:03:01.474Z,96702.70
2018-06-21T07:05:28.753Z,96714.50
2018-06-21T07:07:56.026Z,96710.09
2018-06-21T07:10:23.212Z,96702.12
2018-06-21T07:12:50.389Z,96706.53
2018-06-21T07:15:17.573Z,96703.82
2018-06-21T07:17:44.755Z,96699.15
2018-06-21T07:20:11.953Z,96702.37
2018-06-21T07:22:39.098Z,96698.70
2018-06-21T07:25:06.280Z,96691.34
2018-06-21T07:27:33.485Z,96687.05
2018-06-21T07:30:00.761Z,96682.98
2018-06-21T07:32:27.945Z,96674.38
2018-06-21T07:34:55.107Z,96675.77
2018-06-21T07:37:22.236Z,96676.70
2018-06-21T07:39:49.392Z,96668.95
2018-06-21T07:42:16.585Z,96672.28
2018-06-21T07:44:43.732Z,96672.88
2018-06-21T07:47:10.917Z,96668.19
2018-06-21T07:49:38.104Z,96662.16
2018-06-21T07:52:05.225Z,96660.61
2018-06-21T07:54:32.417Z,96661.02
2018-06-21T07:56:59.625Z,96656.46
2018-06-21T07:59:26.814Z,96658.91
2018-06-21T08:01:54.144Z,96658.97
2018-06-21T08:04:21.328Z,96653.55
2018-06-21T08:06:48.487Z,96652.61
2018-06-21T08:09:15.725Z,96653.89
2018-06-21T08:11:42.926Z,96642.03
2018-06-21T08:14:10.116Z,96638.38
2018-06-21T08:16:37.961Z,96632.69
2018-06-21T08:19:05.291Z,96633.70
2018-06-21T08:21:32.828Z,96634.40
2018-06-21T08:24:00.019Z,96635.88
2018-06-21T08:26:27.177Z,96630.81
2018-06-21T08:28:54.365Z,96633.88
2018-06-21T08:31:21.500Z,96625.40
2018-06-21T08:33:48.692Z,96621.56
2018-06-21T08:36:15.911Z,96628.59
2018-06-21T08:38:43.119Z,96619.63
2018-06-21T08:41:10.237Z,96622.64
2018-06-21T08:43:38.158Z,96612.91
2018-06-21T08:46:05.361Z,96611.07
2018-06-21T08:48:32.500Z,96609.75
2018-06-21T08:50:59.667Z,96612.07
2018-06-21T08:53:26.869Z,96610.64
2018-06-21T08:55:54.081Z,96606.30
2018-06-21T08:58:21.308Z,96613.75
2018-06-21T09:00:48.418Z,96603.64
2018-06-21T09:03:15.569Z,96605.77
2018-06-21T09:05:42.686Z,96612.40
2018-06-21T09:08:09.880Z,96605.45
2018-06-21T09:10:37.065Z,96615.13
2018-06-21T09:13:04.229Z,96616.71
2018-06-21T09:15:31.398Z,96616.02
2018-06-21T09:17:58.513Z,96613.07
2018-06-21T09:20:25.632Z,96618.47
2018-06-21T09:22:52.814Z,96612.75
2018-06-21T09:25:20.013Z,96605.67
2018-06-21T09:27:47.162Z,96604.48
2018-06-21T09:30:14.356Z,96603.20
2018-06-21T09:32:41.580Z,96600.21
2018-06-21T09:35:08.696Z,96600.08
2018-06-21T09:37:41.308Z,96594.27
2018-06-21T09:40:14.158Z,96582.20
2018-06-21T09:42:47.030Z,96590.08
2018-06-21T09:45:18.743Z,96583.60
2018-06-21T09:47:51.477Z,96579.98
2018-06-21T09:50:18.697Z,96579.02
2018-06-21T09:52:45.949Z,96582.06
2018-06-21T09:55:13.121Z,96581.94
2018-06-21T09:57:40.312Z,96563.85
2018-06-21T10:00:08.322Z,96570.44
2018-06-21T10:02:35.500Z,96563.59
2018-06-21T10:05:02.904Z,96584.34
2018-06-21T10:07:30.082Z,96569.13
2018-06-21T10:09:57.234Z,96583.41
2018-06-21T10:12:24.366Z,96590.95
2018-06-21T10:14:51.520Z,96579.75
2018-06-21T10:17:18.712Z,96582.88
2018-06-21T10:19:45.914Z,96578.80
2018-06-21T10:22:13.060Z,96581.09
2018-06-21T10:24:40.240Z,96580.98
2018-06-21T10:27:07.369Z,96576.77
2018-06-21T10:29:34.504Z,96574.80
2018-06-21T10:32:01.644Z,96571.09
2018-06-21T10:34:28.797Z,96574.73
2018-06-21T10:36:55.997Z,96571.36
2018-06-21T10:39:23.199Z,96563.25
2018-06-21T10:41:50.417Z,96555.16
2018-06-21T10:44:17.634Z,96563.33
2018-06-21T10:46:44.825Z,96552.33
2018-06-21T10:49:11.981Z,96561.81
2018-06-21T10:51:39.169Z,96552.50
2018-06-21T10:54:06.314Z,96572.10
2018-06-21T10:56:33.471Z,96559.84
2018-06-21T10:59:00.655Z,96552.02
2018-06-21T11:01:27.963Z,96560.93
2018-06-21T11:03:55.497Z,96566.88
2018-06-21T11:06:23.101Z,96556.42
2018-06-21T11:08:50.395Z,96553.81
2018-06-21T11:11:17.581Z,96568.52
2018-06-21T11:13:44.767Z,96553.09
2018-06-21T11:16:11.963Z,96561.09
2018-06-21T11:18:39.242Z,96531.93
2018-06-21T11:21:06.425Z,96544.12
2018-06-21T11:23:33.609Z,96547.91
2018-06-21T11:26:00.873Z,96555.64
2018-06-21T11:28:28.009Z,96559.28
2018-06-21T11:30:55.145Z,96550.80
2018-06-21T11:33:22.436Z,96572.68
2018-06-21T11:35:49.582Z,96559.53
2018-06-21T11:38:16.813Z,96568.53
2018-06-21T11:40:43.960Z,96572.41
2018-06-21T11:43:11.162Z,96573.77
2018-06-21T11:45:38.336Z,96584.05
2018-06-21T11:48:05.520Z,96568.52
2018-06-21T11:50:32.807Z,96572.66
2018-06-21T11:52:59.997Z,96578.11
2018-06-21T11:55:27.127Z,96572.50
2018-06-21T11:57:54.301Z,96579.48
2018-06-21T12:00:21.514Z,96581.69
2018-06-21T12:02:48.689Z,96560.21
2018-06-21T12:05:15.849Z,96579.38
2018-06-21T12:07:43.073Z,96578.22
2018-06-21T12:10:10.252Z,96583.92
2018-06-21T12:12:37.444Z,96578.45
2018-06-21T12:15:04.649Z,96591.47
2018-06-21T12:17:31.850Z,96546.16
2018-06-21T12:19:59.018Z,96597.84
2018-06-21T12:22:26.232Z,96611.70
2018-06-21T12:24:53.413Z,96606.56
2018-06-21T12:27:20.572Z,96599.68
2018-06-21T12:29:47.706Z,96594.80
2018-06-21T12:32:14.938Z,96588.31
2018-06-21T12:34:42.129Z,96608.34
2018-06-21T12:37:09.276Z,96603.98
2018-06-21T12:39:36.442Z,96600.73
2018-06-21T12:42:03.611Z,96593.67
2018-06-21T12:44:30.764Z,96602.52
2018-06-21T12:46:57.943Z,96618.86
2018-06-21T12:49:25.066Z,96605.58
2018-06-21T12:51:52.245Z,96590.11
2018-06-21T12:54:19.564Z,96600.52
2018-06-21T12:56:46.712Z,96602.20
2018-06-21T12:59:13.946Z,96589.06
2018-06-21T13:01:41.121Z,96594.94
2018-06-21T13:04:08.280Z,96594.70
2018-06-21T13:06:35.477Z,96594.61
2018-06-21T13:10:14.722Z,96590.28
2018-06-21T13:12:54.553Z,96589.50
2018-06-21T13:15:21.806Z,96595.43
2018-06-21T13:17:48.970Z,96609.59
2018-06-21T13:20:16.185Z,96615.56
2018-06-21T13:22:43.360Z,96606.61
2018-06-21T13:25:10.556Z,96609.34
2018-06-21T13:27:37.758Z,96615.58
2018-06-21T13:30:06.752Z,96617.87
2018-06-21T13:32:34.105Z,96603.53
2018-06-21T13:35:01.280Z,96597.61
2018-06-21T13:37:28.452Z,96620.94
2018-06-21T13:39:55.632Z,96608.34
2018-06-21T13:42:22.792Z,96622.75
2018-06-21T13:44:49.989Z,96623.48
2018-06-21T13:47:17.199Z,96613.59
2018-06-21T13:49:44.400Z,96618.24
2018-06-21T13:52:11.623Z,96620.70
2018-06-21T13:54:38.892Z,96620.48
2018-06-21T13:57:06.130Z,96620.20
2018-06-21T13:59:33.247Z,96614.72
2018-06-21T14:02:00.398Z,96627.27
2018-06-21T14:04:27.593Z,96609.56
2018-06-21T14:06:54.740Z,96609.87
2018-06-21T14:09:22.009Z,96584.70
2018-06-21T14:11:49.191Z,96630.48
2018-06-21T14:14:16.301Z,96607.42
2018-06-21T14:16:43.442Z,96617.31
2018-06-21T14:19:10.686Z,96629.30
2018-06-21T14:21:37.806Z,96626.50
2018-06-21T14:24:10.701Z,96627.78
2018-06-21T14:26:38.236Z,96622.63
2018-06-21T14:29:05.434Z,96639.11
2018-06-21T14:31:32.568Z,96636.67
2018-06-21T14:33:59.793Z,96638.22
2018-06-21T14:36:26.946Z,96646.32
2018-06-21T14:38:54.148Z,96652.56
2018-06-21T14:41:21.305Z,96647.35
2018-06-21T14:43:49.718Z,96658.95
2018-06-21T14:46:17.004Z,96661.33
2018-06-21T14:48:44.262Z,96660.61
2018-06-21T14:51:11.574Z,96661.58
2018-06-21T14:53:39.059Z,96661.92
2018-06-21T14:56:06.762Z,96678.89
2018-06-21T14:58:34.046Z,96673.41
2018-06-21T15:01:01.286Z,96678.80
2018-06-21T15:03:28.932Z,96684.13
2018-06-21T15:05:56.262Z,96695.99
2018-06-21T15:08:23.539Z,96694.34
2018-06-21T15:10:50.741Z,96693.13
2018-06-21T15:13:17.947Z,96703.14
2018-06-21T15:15:46.942Z,96701.73
2018-06-21T15:18:14.120Z,96705.16
2018-06-21T15:20:41.271Z,96701.15
2018-06-21T15:23:08.491Z,96704.73
2018-06-21T15:25:35.601Z,96711.66
2018-06-21T15:28:02.793Z,96712.06
2018-06-21T15:30:33.850Z,96712.72
2018-06-21T15:33:01.063Z,96703.05
2018-06-21T15:35:28.257Z,96710.16
2018-06-21T15:37:55.429Z,96713.68
2018-06-21T15:40:22.604Z,96715.89
2018-06-21T15:42:49.743Z,96706.13
2018-06-21T15:45:16.927Z,96723.56
2018-06-21T15:47:44.134Z,96720.08
2018-06-21T15:50:11.549Z,96722.64
2018-06-21T15:52:38.725Z,96735.81
2018-06-21T15:55:06.025Z,96735.12
2018-06-21T15:57:33.313Z,96735.46
2018-06-21T16:00:00.544Z,96745.59
2018-06-21T16:02:27.824Z,96747.02
2018-06-21T16:04:55.047Z,96744.17
2018-06-21T16:07:22.201Z,96748.16
2018-06-21T16:09:49.342Z,96749.17
2018-06-21T16:12:18.283Z,96746.72
2018-06-21T16:14:45.546Z,96755.97
2018-06-21T16:17:12.804Z,96764.13
2018-06-21T16:19:40.000Z,96759.30
2018-06-21T16:22:07.197Z,96763.13
2018-06-21T16:24:34.390Z,96751.63
2018-06-21T16:27:01.566Z,96752.17
2018-06-21T16:29:28.832Z,96752.41
2018-06-21T16:31:56.002Z,96751.99
2018-06-21T16:34:23.154Z,96754.64
2018-06-21T16:36:50.330Z,96748.03
2018-06-21T16:39:17.464Z,96744.22
2018-06-21T16:41:44.624Z,96748.87
2018-06-21T16:44:11.809Z,96752.77
2018-06-21T16:46:38.955Z,96734.13
2018-06-21T16:49:06.332Z,96741.34
2018-06-21T16:51:33.481Z,96741.41
2018-06-21T16:54:00.660Z,96736.63
2018-06-21T16:56:27.872Z,96741.61
2018-06-21T16:58:55.124Z,96734.83
2018-06-21T17:01:22.354Z,96731.59
2018-06-21T17:03:49.573Z,96737.21
2018-06-21T17:06:17.015Z,96745.86
2018-06-21T17:08:44.196Z,96734.33
2018-06-21T17:11:14.349Z,96740.64
2018-06-21T17:13:45.247Z,96742.60
2018-06-21T17:16:16.151Z,96725.56
2018-06-21T17:18:47.639Z,96734.88
2018-06-21T17:21:17.837Z,96730.87
2018-06-21T17:23:47.788Z,96732.30
2018-06-21T17:26:17.822Z,96731.20
2018-06-21T17:28:48.550Z,96727.11
2018-06-21T17:31:15.864Z,96743.53
2018-06-21T17:33:43.120Z,96743.50
2018-06-21T17:36:10.461Z,96745.49
2018-06-21T17:38:37.621Z,96741.64
2018-06-21T17:41:04.910Z,96748.95
2018-06-21T17:43:32.077Z,96748.77
2018-06-21T17:45:59.276Z,96746.45
2018-06-21T17:48:26.443Z,96747.78
2018-06-21T17:50:53.595Z,96750.27
2018-06-21T17:53:20.779Z,96747.77
2018-06-21T17:55:47.908Z,96765.77
2018-06-21T17:58:15.114Z,96762.70
2018-06-21T18:00:42.381Z,96766.05
2018-06-21T18:03:09.525Z,96770.09
2018-06-21T18:05:36.911Z,96781.59
2018-06-21T18:08:04.251Z,96784.66
2018-06-21T18:10:31.364Z,96786.20
2018-06-21T18:12:58.564Z,96788.20
2018-06-21T18:15:25.754Z,96802.57
2018-06-21T18:17:52.920Z,96798.98
2018-06-21T18:20:20.122Z,96800.98
2018-06-21T18:22:47.327Z,96804.09
2018-06-21T18:25:14.470Z,96804.23
2018-06-21T18:27:41.670Z,96810.74
2018-06-21T18:30:08.844Z,96816.88
2018-06-21T18:32:36.007Z,96817.80
2018-06-21T18:35:03.352Z,96822.20
2018-06-21T18:37:30.481Z,96819.97
2018-06-21T18:39:57.633Z,96826.31
2018-06-21T18:42:31.547Z,96827.58
2018-06-21T18:44:59.008Z,96829.92
2018-06-21T18:47:26.227Z,96843.56
2018-06-21T18:49:53.382Z,96843.22
2018-06-21T18:52:20.581Z,96841.62
2018-06-21T18:54:47.721Z,96846.00
2018-06-21T18:57:14.914Z,96852.30
2018-06-21T18:59:42.026Z,96855.97
2018-06-21T19:02:09.258Z,96861.42
2018-06-21T19:04:36.438Z,96864.88
2018-06-21T19:07:09.504Z,96868.41
2018-06-21T19:09:42.210Z,96877.02
2018-06-21T19:12:09.705Z,96878.29
2018-06-21T19:14:37.784Z,96885.89
2018-06-21T19:17:05.059Z,96892.59
2018-06-21T19:19:32.246Z,96903.42
2018-06-21T19:21:59.432Z,96912.09
2018-06-21T19:24:26.565Z,96915.11
2018-06-21T19:26:53.787Z,96922.73
2018-06-21T19:29:20.953Z,96930.45
2018-06-21T19:31:48.142Z,96934.52
2018-06-21T19:34:15.624Z,96948.57
2018-06-21T19:36:42.828Z,96955.45
2018-06-21T19:39:10.691Z,96954.06
2018-06-21T19:41:38.414Z,96957.89
2018-06-21T19:44:05.938Z,96962.88
2018-06-21T19:46:33.047Z,96976.80
2018-06-21T19:49:00.214Z,96979.92
2018-06-21T19:51:27.413Z,96983.28
2018-06-21T19:53:54.613Z,96985.47
2018-06-21T19:56:21.948Z,96994.27
2018-06-21T19:58:49.117Z,96997.31
2018-06-21T20:01:16.399Z,97002.87
2018-06-21T20:03:43.523Z,97008.88
2018-06-21T20:06:10.787Z,97003.50
2018-06-21T20:08:38.036Z,97012.22
2018-06-21T20:11:10.718Z,97018.19
2018-06-21T20:13:46.015Z,97021.25
2018-06-21T20:16:13.234Z,97022.50
2018-06-21T20:18:40.403Z,97023.98
2018-06-21T20:21:11.444Z,97028.68
2018-06-21T20:23:50.154Z,97034.63
2018-06-21T20:26:18.044Z,97034.55
2018-06-21T20:28:45.206Z,97036.86
2018-06-21T20:31:13.771Z,97043.02
2018-06-21T20:33:42.324Z,97055.25
2018-06-21T20:36:09.719Z,97059.48
2018-06-21T20:38:36.901Z,97060.36
2018-06-21T20:41:04.579Z,97055.77
2018-06-21T20:43:31.808Z,97063.00
2018-06-21T20:45:59.342Z,97072.02
2018-06-21T20:48:26.548Z,97081.06
2018-06-21T20:50:53.741Z,97079.23
2018-06-21T20:53:20.960Z,97084.77
2018-06-21T20:55:48.090Z,97089.34
2018-06-21T20:58:15.173Z,97088.13
2018-06-21T21:00:42.353Z,97095.13
2018-06-21T21:03:09.729Z,97097.95
2018-06-21T21:05:36.895Z,97100.95
2018-06-21T21:08:04.101Z,97104.65
2018-06-21T21:10:31.336Z,97109.86
2018-06-21T21:12:58.512Z,97111.31
2018-06-21T21:15:25.647Z,97108.70
2018-06-21T21:17:52.796Z,97104.44
2018-06-21T21:20:19.927Z,97042.48
2018-06-21T21:22:47.074Z,97112.00
2018-06-21T21:25:14.218Z,97118.22
2018-06-21T21:27:41.414Z,97118.47
2018-06-21T21:30:09.081Z,97118.03
2018-06-21T21:32:36.223Z,97127.70
2018-06-21T21:35:03.713Z,97136.62
2018-06-21T21:37:30.871Z,97138.25
2018-06-21T21:40:05.545Z,97139.02
2018-06-21T21:42:33.880Z,97141.47
2018-06-21T21:45:01.048Z,97144.94
2018-06-21T21:47:28.227Z,97147.03
2018-06-21T21:49:55.613Z,97152.38
2018-06-21T21:52:22.884Z,97151.92
2018-06-21T21:54:50.033Z,97155.06
2018-06-21T21:57:17.324Z,97154.06
2018-06-21T21:59:44.805Z,97158.44
2018-06-21T22:02:11.923Z,97163.91
2018-06-21T22:04:39.052Z,97165.92
2018-06-21T22:07:06.197Z,97172.91
2018-06-21T22:09:33.349Z,97173.98
2018-06-21T22:12:00.492Z,97165.81
2018-06-21T22:14:27.629Z,97168.52
2018-06-21T22:16:54.773Z,97173.11
2018-06-21T22:19:22.015Z,97163.64
2018-06-21T22:21:49.188Z,97172.98
2018-06-21T22:24:16.324Z,97175.21
2018-06-21T22:26:43.429Z,97178.72
2018-06-21T22:29:10.596Z,97178.59
2018-06-21T22:31:37.692Z,97179.89
2018-06-21T22:34:05.068Z,97178.98
2018-06-21T22:36:32.298Z,97180.50
2018-06-21T22:38:59.478Z,97179.66
2018-06-21T22:41:26.596Z,97176.66
2018-06-21T22:43:53.761Z,97184.53
2018-06-21T22:46:20.897Z,97181.99
2018-06-21T22:48:48.017Z,97186.78
2018-06-21T22:51:15.170Z,97186.68
2018-06-21T22:53:42.297Z,97185.00
2018-06-21T22:56:09.447Z,97183.91
2018-06-21T22:58:36.595Z,97186.83
2018-06-21T23:01:03.693Z,97188.05
2018-06-21T23:03:30.888Z,97189.23
2018-06-21T23:05:58.009Z,97185.00
2018-06-21T23:08:25.182Z,97189.11
2018-06-21T23:10:52.333Z,97191.66
2018-06-21T23:13:19.536Z,97190.95
2018-06-21T23:15:46.652Z,97196.85
2018-06-21T23:18:23.974Z,97202.12
2018-06-21T23:20:51.093Z,97205.27
2018-06-21T23:23:18.237Z,97201.72
2018-06-21T23:25:45.377Z,97205.84
2018-06-21T23:28:12.548Z,97204.50
2018-06-21T23:30:39.693Z,97201.75
2018-06-21T23:33:06.832Z,97202.84
2018-06-21T23:35:33.962Z,97207.46
2018-06-21T23:38:01.132Z,97212.58
2018-06-21T23:40:28.325Z,97212.19
2018-06-21T23:42:55.443Z,97213.32
2018-06-21T23:45:22.544Z,97211.54
2018-06-21T23:47:49.743Z,97212.13
2018-06-21T23:50:16.857Z,97218.44
2018-06-21T23:52:44.024Z,97219.56
2018-06-21T23:55:11.172Z,97233.19
2018-06-21T23:57:38.297Z,97231.36
